Time;durP1;ratioP1;P1;durP2;ratioP2;P2;SDS_P1;SDS_P2;PMS_P1;PMS_P2;Temp;Humidity;BMP_temperature;BMP_pressure;BME280_temperature;BME280_humidity;BME280_pressure;Samples;Min_cycle;Max_cycle;Signal;HPM_P1;HPM_P2
2023/07/25 00:00:31;;;;;;;1.60;1.50;;;;;;;12.94;98.02;100624.47;5052298;28;20049;-84
2023/07/25 00:02:59;;;;;;;1.57;1.43;;;;;;;12.91;97.66;100616.72;5053115;28;20037;-84
2023/07/25 00:05:24;;;;;;;1.42;1.33;;;;;;;12.87;97.65;100622.91;5052377;28;20025;-85
2023/07/25 00:07:49;;;;;;;1.90;1.80;;;;;;;12.82;97.82;100625.66;5051827;28;20025;-84
2023/07/25 00:10:15;;;;;;;1.70;1.60;;;;;;;12.78;98.07;100622.28;5052692;28;20028;-84
2023/07/25 00:12:58;;;;;;;2.07;1.77;;;;;;;12.79;97.78;100626.59;5052794;28;20079;-85
2023/07/25 00:15:23;;;;;;;1.63;1.52;;;;;;;12.65;97.94;100611.38;5052712;28;20499;-84
2023/07/25 00:17:49;;;;;;;1.70;1.60;;;;;;;12.73;98.12;100626.75;5052741;28;20141;-84
2023/07/25 00:20:14;;;;;;;1.50;1.40;;;;;;;12.72;97.93;100626.81;5051934;28;20025;-84
2023/07/25 00:22:52;;;;;;;2.23;1.80;;;;;;;12.65;97.99;100623.53;5052779;28;20120;-84
2023/07/25 00:25:18;;;;;;;1.77;1.67;;;;;;;12.69;98.29;100622.53;5052204;28;20021;-84
2023/07/25 00:27:44;;;;;;;2.10;1.65;;;;;;;12.66;98.17;100620.03;5052221;28;20052;-84
2023/07/25 00:30:09;;;;;;;1.97;1.87;;;;;;;12.68;98.18;100620.84;5052284;28;20454;-84
2023/07/25 00:32:35;;;;;;;2.07;1.97;;;;;;;12.67;98.40;100616.53;5052817;28;20021;-84
2023/07/25 00:35:01;;;;;;;2.20;2.00;;;;;;;12.66;98.37;100615.69;5051435;28;20376;-84
2023/07/25 00:37:29;;;;;;;2.42;2.00;;;;;;;12.63;98.43;100615.75;5052575;28;20515;-84
2023/07/25 00:39:54;;;;;;;1.90;1.80;;;;;;;12.61;98.55;100611.50;5052964;28;20389;-84
2023/07/25 00:42:19;;;;;;;2.67;2.00;;;;;;;12.62;98.32;100619.25;5050918;28;20037;-84
2023/07/25 00:44:45;;;;;;;1.83;1.73;;;;;;;12.59;98.41;100615.88;5052362;28;20029;-84
2023/07/25 00:47:10;;;;;;;2.40;1.70;;;;;;;12.52;98.17;100623.84;5052435;28;20060;-84
2023/07/25 00:49:35;;;;;;;1.80;1.70;;;;;;;12.46;98.54;100610.13;5051740;28;20527;-84
2023/07/25 00:52:01;;;;;;;2.40;2.00;;;;;;;12.50;98.72;100619.59;5118976;22;20480;-84
2023/07/25 00:54:27;;;;;;;2.77;2.13;;;;;;;12.50;98.89;100620.44;5092004;28;20028;-84
2023/07/25 00:56:52;;;;;;;2.37;1.90;;;;;;;12.49;98.75;100618.75;5091920;28;20032;-84
2023/07/25 00:59:17;;;;;;;1.80;1.70;;;;;;;12.39;98.50;100609.44;5092617;28;20161;-84
2023/07/25 01:01:43;;;;;;;1.90;1.80;;;;;;;12.40;98.69;100620.72;5092005;28;20115;-84
2023/07/25 01:04:08;;;;;;;2.57;1.90;;;;;;;12.43;98.80;100618.91;5091671;28;20480;-84
2023/07/25 01:06:34;;;;;;;2.93;2.00;;;;;;;12.41;98.83;100612.03;5092607;28;20039;-84
2023/07/25 01:08:59;;;;;;;2.20;2.00;;;;;;;12.42;98.83;100616.34;5092493;28;20020;-84
2023/07/25 01:11:25;;;;;;;1.70;1.60;;;;;;;12.40;98.68;100618.97;5090901;28;20182;-84
2023/07/25 01:13:51;;;;;;;1.80;1.70;;;;;;;12.35;98.90;100607.84;5092716;28;20025;-84
2023/07/25 01:16:26;;;;;;;1.70;1.60;;;;;;;12.29;98.63;100611.47;5093559;28;20028;-84
2023/07/25 01:18:52;;;;;;;2.00;1.80;;;;;;;12.24;98.84;100607.28;5096709;28;20035;-84
2023/07/25 01:21:19;;;;;;;1.80;1.70;;;;;;;12.15;98.92;100605.75;5095600;28;20024;-84
2023/07/25 01:23:45;;;;;;;2.38;1.92;;;;;;;12.15;98.89;100608.34;5095788;28;20081;-84
2023/07/25 01:26:10;;;;;;;2.00;1.77;;;;;;;12.09;99.23;100604.16;5096150;28;20031;-84
2023/07/25 01:28:37;;;;;;;1.87;1.53;;;;;;;12.09;99.16;100614.56;5096214;28;20028;-83
2023/07/25 01:31:11;;;;;;;1.70;1.60;;;;;;;12.10;99.18;100618.03;5095275;28;20048;-84
2023/07/25 01:33:37;;;;;;;1.67;1.58;;;;;;;12.01;99.40;100606.94;5096224;28;20020;-84
2023/07/25 01:36:02;;;;;;;1.50;1.40;;;;;;;12.00;99.37;100609.59;5095761;28;20027;-84
2023/07/25 01:38:27;;;;;;;2.90;1.90;;;;;;;11.98;99.58;100603.56;5094891;28;20020;-84
2023/07/25 01:40:53;;;;;;;2.17;1.97;;;;;;;11.99;99.65;100598.31;5096135;28;20111;-84
2023/07/25 01:43:18;;;;;;;1.97;1.80;;;;;;;11.98;99.57;100595.78;5095522;28;20024;-84
2023/07/25 01:45:43;;;;;;;1.80;1.70;;;;;;;12.00;99.65;100607.00;5095036;28;20023;-84
2023/07/25 01:48:09;;;;;;;1.60;1.50;;;;;;;11.92;99.37;100595.91;5095114;28;20016;-84
2023/07/25 01:50:34;;;;;;;1.80;1.70;;;;;;;11.91;99.38;100595.03;5095957;28;20035;-84
2023/07/25 01:52:59;;;;;;;1.80;1.70;;;;;;;11.92;99.34;100595.91;5094548;28;20036;-84
2023/07/25 01:55:24;;;;;;;1.80;1.70;;;;;;;11.90;99.40;100594.19;5095530;28;20361;-84
2023/07/25 01:57:55;;;;;;;2.07;1.60;;;;;;;11.87;99.39;100590.81;5095580;28;20051;-84
2023/07/25 02:00:21;;;;;;;1.77;1.67;;;;;;;11.80;99.42;100576.25;5094593;28;20361;-84
2023/07/25 02:02:46;;;;;;;1.87;1.77;;;;;;;11.86;99.45;100591.72;5095458;28;20081;-84
2023/07/25 02:05:11;;;;;;;1.90;1.80;;;;;;;11.86;99.57;100582.16;5095116;28;20399;-84
2023/07/25 02:07:37;;;;;;;2.43;1.90;;;;;;;11.87;99.80;100583.03;5095073;28;20024;-84
2023/07/25 02:10:02;;;;;;;1.90;1.80;;;;;;;11.83;99.52;100576.19;5095297;28;20016;-84
2023/07/25 02:12:30;;;;;;;2.00;1.90;;;;;;;11.82;99.47;100575.31;5093921;28;20032;-84
2023/07/25 02:14:55;;;;;;;2.42;2.10;;;;;;;11.84;99.67;100578.72;5095249;28;20030;-84
2023/07/25 02:17:20;;;;;;;2.27;2.00;;;;;;;11.83;99.58;100581.38;5095035;28;20473;-84
2023/07/25 02:19:46;;;;;;;2.10;2.00;;;;;;;11.76;99.82;100572.88;5094470;28;20024;-84
2023/07/25 02:22:11;;;;;;;1.93;1.83;;;;;;;11.75;99.56;100584.16;5095438;28;20038;-83
2023/07/25 02:24:36;;;;;;;2.00;1.90;;;;;;;11.71;99.96;100580.78;5095056;28;20068;-84
2023/07/25 02:27:02;;;;;;;1.73;1.63;;;;;;;11.64;99.63;100579.25;5094174;28;20042;-84
2023/07/25 02:29:28;;;;;;;1.90;1.80;;;;;;;11.63;100.00;100579.25;5094487;28;20049;-84
2023/07/25 02:31:56;;;;;;;2.20;2.00;;;;;;;11.62;99.97;100581.00;5076749;28;20039;-84
2023/07/25 02:34:21;;;;;;;1.90;1.80;;;;;;;11.56;99.70;100571.63;5094115;28;20403;-83
2023/07/25 02:36:49;;;;;;;1.80;1.70;;;;;;;11.59;99.69;100578.47;5095126;28;20035;-83
2023/07/25 02:39:15;;;;;;;1.88;1.77;;;;;;;11.58;100.00;100576.78;5094517;28;20039;-84
2023/07/25 02:41:40;;;;;;;2.53;1.80;;;;;;;11.51;100.00;100565.66;5094016;28;20464;-84
2023/07/25 02:44:05;;;;;;;2.17;1.97;;;;;;;11.54;100.00;100573.41;5094468;28;20077;-83
2023/07/25 02:46:31;;;;;;;2.00;1.90;;;;;;;11.52;99.95;100569.97;5094254;28;20035;-84
2023/07/25 02:48:56;;;;;;;2.10;1.80;;;;;;;11.51;100.00;100570.03;5093923;28;20020;-83
2023/07/25 02:51:21;;;;;;;2.10;1.90;;;;;;;11.39;100.00;100559.03;5093810;28;20063;-84
2023/07/25 02:53:46;;;;;;;2.40;2.20;;;;;;;11.50;99.97;100578.69;5094047;28;20047;-84
2023/07/25 02:56:12;;;;;;;2.30;1.97;;;;;;;11.49;100.00;100585.63;5093079;28;20020;-83
2023/07/25 02:58:40;;;;;;;2.10;1.90;;;;;;;11.46;100.00;100582.25;5094712;28;20017;-84
2023/07/25 03:01:05;;;;;;;2.03;1.80;;;;;;;11.44;100.00;100584.91;5094213;28;20028;-83
2023/07/25 03:03:30;;;;;;;1.80;1.70;;;;;;;11.41;100.00;100577.16;5093632;28;20042;-84
2023/07/25 03:05:55;;;;;;;2.03;1.70;;;;;;;11.41;100.00;100582.34;5094454;28;20032;-84
2023/07/25 03:08:21;;;;;;;2.20;2.00;;;;;;;11.41;100.00;100577.16;5093448;28;20070;-84
2023/07/25 03:10:46;;;;;;;1.83;1.73;;;;;;;11.42;100.00;100578.88;5093414;28;20057;-84
2023/07/25 03:13:11;;;;;;;4.03;2.10;;;;;;;11.42;100.00;100584.94;5093927;28;20035;-84
2023/07/25 03:15:37;;;;;;;2.47;1.90;;;;;;;11.41;100.00;100582.34;5094107;28;20407;-84
2023/07/25 03:18:02;;;;;;;2.00;1.80;;;;;;;11.41;100.00;100579.75;5092784;28;20031;-83
2023/07/25 03:20:28;;;;;;;1.93;1.80;;;;;;;11.36;100.00;100579.88;5094242;28;20035;-83
2023/07/25 03:22:53;;;;;;;2.83;1.73;;;;;;;11.36;100.00;100574.66;5093400;28;20464;-84
2023/07/25 03:25:18;;;;;;;3.33;2.10;;;;;;;11.38;100.00;100579.81;5093685;28;20028;-84
2023/07/25 03:27:44;;;;;;;2.23;2.03;;;;;;;11.42;100.00;100576.28;5093904;28;20043;-83
2023/07/25 03:30:09;;;;;;;2.30;2.10;;;;;;;11.44;100.00;100574.50;5092750;28;20055;-84
2023/07/25 03:32:37;;;;;;;2.37;2.17;;;;;;;11.43;100.00;100573.63;5093424;28;20121;-84
2023/07/25 03:35:03;;;;;;;2.17;2.00;;;;;;;11.43;100.00;100563.22;5093570;28;20016;-83
2023/07/25 03:37:28;;;;;;;2.27;2.07;;;;;;;11.48;100.00;100572.69;5092963;28;20035;-84
2023/07/25 03:39:53;;;;;;;2.00;1.90;;;;;;;11.51;100.00;100570.84;5092965;28;20084;-84
2023/07/25 03:42:19;;;;;;;2.70;2.10;;;;;;;11.52;100.00;100566.53;5093124;28;20027;-84
2023/07/25 03:44:44;;;;;;;2.47;2.20;;;;;;;11.49;100.00;100557.03;5093329;28;20028;-83
2023/07/25 03:47:10;;;;;;;2.20;2.00;;;;;;;11.56;100.00;100565.53;5093312;28;20031;-84
2023/07/25 03:49:35;;;;;;;2.57;2.00;;;;;;;11.60;100.00;100564.59;5093569;28;20452;-83
2023/07/25 03:52:00;;;;;;;2.33;2.03;;;;;;;11.62;100.00;100567.16;5092231;28;20044;-83
2023/07/25 03:54:26;;;;;;;2.13;1.97;;;;;;;11.58;100.00;100561.19;5093378;28;20132;-84
2023/07/25 03:56:54;;;;;;;2.30;2.10;;;;;;;11.63;100.00;100564.53;5093558;28;20040;-83
2023/07/25 03:59:20;;;;;;;2.10;1.90;;;;;;;11.66;100.00;100572.22;5092458;28;20116;-83
2023/07/25 04:01:45;;;;;;;1.97;1.80;;;;;;;11.65;100.00;100567.09;5093195;28;20535;-83
2023/07/25 04:04:10;;;;;;;1.90;1.80;;;;;;;11.67;100.00;100573.94;5093025;28;20023;-84
2023/07/25 04:06:37;;;;;;;3.00;1.80;;;;;;;11.68;100.00;100573.06;5092809;28;20028;-83
2023/07/25 04:09:02;;;;;;;1.85;1.70;;;;;;;11.66;100.00;100579.19;5093261;28;20125;-83
2023/07/25 04:11:27;;;;;;;1.60;1.50;;;;;;;11.63;100.00;100574.06;5092857;28;20032;-83
2023/07/25 04:13:53;;;;;;;2.07;1.90;;;;;;;11.64;100.00;100580.97;5092537;28;20077;-84
2023/07/25 04:16:21;;;;;;;2.03;1.73;;;;;;;11.65;100.00;100574.88;5092898;28;20058;-84
2023/07/25 04:18:46;;;;;;;1.70;1.60;;;;;;;11.63;100.00;100569.72;5093383;28;20020;-84
2023/07/25 04:21:12;;;;;;;1.80;1.70;;;;;;;11.64;100.00;100571.44;5092057;28;20494;-84
2023/07/25 04:23:37;;;;;;;2.17;2.00;;;;;;;11.66;100.00;100574.00;5093273;28;20021;-84
2023/07/25 04:26:02;;;;;;;1.93;1.83;;;;;;;11.65;100.00;100575.72;5092543;28;20498;-83
2023/07/25 04:28:28;;;;;;;4.07;1.83;;;;;;;11.66;100.00;100568.78;5092196;28;20472;-84
2023/07/25 04:30:53;;;;;;;1.97;1.83;;;;;;;11.66;100.00;100577.44;5092690;28;20028;-84
2023/07/25 04:33:18;;;;;;;2.00;1.90;;;;;;;11.67;100.00;100576.53;5091330;28;20530;-84
2023/07/25 04:35:47;;;;;;;2.23;1.90;;;;;;;11.69;100.00;100573.94;5092325;28;20031;-84
2023/07/25 04:38:15;;;;;;;1.98;1.88;;;;;;;11.70;100.00;100571.28;5092658;28;20035;-84
2023/07/25 04:40:42;;;;;;;1.80;1.70;;;;;;;11.71;100.00;100573.00;5091673;28;20058;-85
2023/07/25 04:43:07;;;;;;;;;;;;;;;11.73;100.00;100581.59;5092697;28;20032;-85
2023/07/25 04:45:33;;;;;;;1.90;1.80;;;;;;;11.72;100.00;100581.63;5092083;28;19957;-85
2023/07/25 04:47:58;;;;;;;2.40;1.90;;;;;;;11.73;100.00;100586.81;5092560;22;20131;-84
2023/07/25 04:50:23;;;;;;;1.63;1.53;;;;;;;11.75;100.00;100581.56;5072797;28;20110;-85
2023/07/25 04:52:52;;;;;;;2.37;1.90;;;;;;;11.85;100.00;100590.00;5077015;28;20025;-85
2023/07/25 04:55:17;;;;;;;1.90;1.80;;;;;;;11.89;100.00;100589.88;5075539;28;20453;-84
2023/07/25 04:57:43;;;;;;;2.20;2.00;;;;;;;11.89;100.00;100576.88;5076403;28;20023;-85
2023/07/25 05:00:09;;;;;;;2.47;2.03;;;;;;;11.97;100.00;100584.50;5076247;28;20476;-85
2023/07/25 05:02:35;;;;;;;2.40;2.20;;;;;;;12.03;100.00;100579.16;5075629;28;20066;-85
2023/07/25 05:05:00;;;;;;;2.33;2.10;;;;;;;12.14;100.00;100584.09;5076372;28;20099;-85
2023/07/25 05:07:25;;;;;;;2.30;2.10;;;;;;;12.24;100.00;100579.50;5076302;28;20112;-84
2023/07/25 05:09:53;;;;;;;2.20;2.00;;;;;;;12.35;100.00;100574.84;5085233;22;20375;-84
2023/07/25 05:12:19;;;;;;;3.55;2.10;;;;;;;12.46;100.00;100577.19;5094833;28;20028;-83
2023/07/25 05:14:44;;;;;;;2.50;2.20;;;;;;;12.56;100.00;100577.75;5096093;28;20410;-85
2023/07/25 05:17:09;;;;;;;3.13;2.10;;;;;;;12.68;100.00;100576.56;5096013;28;20107;-84
2023/07/25 05:19:35;;;;;;;1.97;1.87;;;;;;;12.74;100.00;100579.00;5096597;28;20020;-83
2023/07/25 05:22:00;;;;;;;2.70;1.97;;;;;;;12.84;100.00;100576.97;5096543;28;20035;-83
2023/07/25 05:24:25;;;;;;;1.70;1.60;;;;;;;12.88;100.00;100577.75;5095176;28;20547;-82
2023/07/25 05:26:51;;;;;;;3.10;1.83;;;;;;;12.88;100.00;100576.00;5096244;28;20103;-83
2023/07/25 05:29:17;;;;;;;1.73;1.63;;;;;;;12.95;100.00;100587.06;5095973;28;20091;-83
2023/07/25 05:31:42;;;;;;;1.70;1.60;;;;;;;12.95;100.00;100571.44;5095469;28;20425;-82
2023/07/25 05:34:09;;;;;;;1.70;1.60;;;;;;;13.04;100.00;100584.22;5096078;28;20488;-82
2023/07/25 05:36:34;;;;;;;1.92;1.77;;;;;;;13.07;100.00;100583.28;5095313;28;20055;-86
2023/07/25 05:38:59;;;;;;;1.40;1.30;;;;;;;13.18;100.00;100588.13;5096079;28;20052;-84
2023/07/25 05:41:34;;;;;;;1.80;1.70;;;;;;;13.09;100.00;100568.44;5093717;28;20043;-83
2023/07/25 05:43:59;;;;;;;2.05;1.50;;;;;;;13.15;100.00;100573.47;5095293;28;20374;-84
2023/07/25 05:46:25;;;;;;;1.77;1.67;;;;;;;13.35;100.00;100598.06;5095867;28;20047;-84
2023/07/25 05:48:50;;;;;;;1.80;1.70;;;;;;;13.43;100.00;100598.72;5095418;28;20028;-84
2023/07/25 05:51:15;;;;;;;2.27;1.93;;;;;;;13.51;100.00;100598.50;5094528;28;20391;-84
2023/07/25 05:53:41;;;;;;;1.60;1.50;;;;;;;13.61;100.00;100601.63;5095585;28;20020;-84
2023/07/25 05:56:06;;;;;;;1.60;1.50;;;;;;;13.69;100.00;100597.03;5095688;28;20020;-84
2023/07/25 05:58:31;;;;;;;1.80;1.70;;;;;;;13.78;100.00;100595.88;5094630;28;20032;-84
2023/07/25 06:00:57;;;;;;;1.83;1.73;;;;;;;13.85;100.00;100606.06;5095620;28;20107;-84
2023/07/25 06:03:22;;;;;;;1.83;1.67;;;;;;;13.90;100.00;100606.75;5094708;28;20063;-86
2023/07/25 06:05:47;;;;;;;1.93;1.83;;;;;;;13.92;100.00;100604.13;5096074;28;20016;-86
2023/07/25 06:08:13;;;;;;;1.63;1.53;;;;;;;13.90;100.00;100601.53;5095865;28;20072;-86
2023/07/25 06:10:39;;;;;;;1.83;1.67;;;;;;;13.92;99.82;100608.47;5095051;28;20047;-86
2023/07/25 06:13:04;;;;;;;1.55;1.45;;;;;;;13.97;100.00;100596.13;5094582;28;20024;-85
2023/07/25 06:15:36;;;;;;;1.60;1.50;;;;;;;14.02;100.00;100597.69;5095176;28;20030;-83
2023/07/25 06:18:02;;;;;;;1.60;1.50;;;;;;;14.08;100.00;100590.53;5093705;28;20483;-86
2023/07/25 06:20:32;;;;;;;1.60;1.50;;;;;;;14.04;99.60;100577.63;5056035;28;20044;-85
2023/07/25 06:23:01;;;;;;;1.48;1.38;;;;;;;14.12;99.75;100571.28;5095483;28;20039;-84
2023/07/25 06:25:39;;;;;;;1.95;1.63;;;;;;;14.18;99.86;100574.53;5094698;28;20028;-84
2023/07/25 06:28:05;;;;;;;1.40;1.30;;;;;;;14.34;99.55;100593.09;5094613;28;20399;-84
2023/07/25 06:30:31;;;;;;;2.15;1.35;;;;;;;14.51;99.61;100597.72;5092038;28;20056;-84
2023/07/25 06:33:01;;;;;;;1.50;1.40;;;;;;;14.62;99.49;100589.53;5075169;28;20031;-84
2023/07/25 06:35:26;;;;;;;1.65;1.13;;;;;;;14.88;98.96;100613.00;5094389;28;20085;-84
2023/07/25 06:38:04;;;;;;;1.13;1.03;;;;;;;14.98;98.22;100612.59;5092776;28;20028;-85
2023/07/25 06:40:29;;;;;;;2.83;2.20;;;;;;;15.29;93.67;100618.44;5094232;28;20019;-85
2023/07/25 06:43:01;;;;;;;4.63;2.10;;;;;;;15.42;91.33;100598.75;5094930;28;20464;-84
2023/07/25 06:45:26;;;;;;;3.90;2.10;;;;;;;16.15;92.91;100616.75;5095518;28;20024;-85
2023/07/25 06:47:51;;;;;;;2.10;1.80;;;;;;;16.91;93.10;100616.09;5093394;28;20101;-84
2023/07/25 06:50:17;;;;;;;2.70;1.83;;;;;;;17.16;81.07;100619.38;5094254;28;20040;-86
2023/07/25 06:52:46;;;;;;;3.92;2.30;;;;;;;16.98;84.53;100598.34;5094226;28;20066;-85
2023/07/25 06:55:31;;;;;;;3.47;2.10;;;;;;;17.20;86.20;100613.91;5075171;28;20032;-85
2023/07/25 06:57:57;;;;;;;;;;;;;;;17.86;88.56;100611.66;5102374;22;20512;-85
2023/07/25 07:00:22;;;;;;;6.00;2.57;;;;;;;18.36;77.56;100616.16;5073089;28;19967;-87
2023/07/25 07:02:57;;;;;;;5.47;2.20;;;;;;;18.07;80.89;100604.50;5072900;28;20055;-84
2023/07/25 07:05:22;;;;;;;7.00;2.30;;;;;;;18.10;76.93;100599.09;5074344;28;20363;-85
2023/07/25 07:08:03;;;;;;;5.60;2.20;;;;;;;17.86;78.19;100598.53;5073930;28;20020;-86
2023/07/25 07:10:35;;;;;;;2.53;1.90;;;;;;;17.68;78.29;100603.75;5074004;28;20488;-84
2023/07/25 07:13:09;;;;;;;3.60;1.92;;;;;;;17.35;78.62;100611.50;5074048;28;20115;-86
2023/07/25 07:15:53;;;;;;;5.45;2.20;;;;;;;17.12;77.82;100616.88;5073170;28;20017;-85
2023/07/25 07:18:18;;;;;;;4.75;2.20;;;;;;;16.98;80.15;100614.06;5073957;28;20032;-85
2023/07/25 07:20:53;;;;;;;2.23;1.90;;;;;;;17.16;79.28;100624.63;5073636;28;20043;-85
2023/07/25 07:23:18;;;;;;;4.57;2.00;;;;;;;17.21;82.74;100618.22;5072897;28;20029;-85
2023/07/25 07:25:44;;;;;;;6.30;2.20;;;;;;;17.25;75.55;100632.91;5073895;28;20096;-86
2023/07/25 07:28:10;;;;;;;5.65;2.10;;;;;;;16.98;80.09;100628.00;5073679;28;20556;-85
2023/07/25 07:30:54;;;;;;;4.53;2.20;;;;;;;16.99;81.51;100634.13;5071566;28;20136;-85
2023/07/25 07:33:19;;;;;;;5.80;2.28;;;;;;;17.03;77.05;100638.28;5072997;28;20107;-86
2023/07/25 07:35:57;;;;;;;3.07;1.87;;;;;;;16.85;80.63;100633.84;5073058;28;20027;-85
2023/07/25 07:38:22;;;;;;;3.30;1.77;;;;;;;16.76;82.35;100612.38;5072494;28;20029;-85
2023/07/25 07:40:47;;;;;;;2.87;1.90;;;;;;;16.83;79.82;100632.16;5073470;28;20020;-86
2023/07/25 07:43:31;;;;;;;4.63;2.20;;;;;;;16.68;78.02;100615.34;5072593;28;20024;-84
2023/07/25 07:46:15;;;;;;;3.35;1.77;;;;;;;16.72;82.59;100639.63;5073802;28;20067;-85
2023/07/25 07:48:43;;;;;;;4.05;2.00;;;;;;;16.50;80.26;100624.00;5072957;28;20028;-83
2023/07/25 07:51:08;;;;;;;4.43;1.90;;;;;;;16.35;80.29;100634.25;5071915;28;20025;-85
2023/07/25 07:53:45;;;;;;;3.13;1.60;;;;;;;16.24;79.73;100633.84;5073680;28;20024;-86
2023/07/25 07:56:12;;;;;;;3.70;1.70;;;;;;;16.21;80.04;100642.66;5072919;28;20433;-86
2023/07/25 07:58:46;;;;;;;;;;;;;;;16.14;78.50;100666.56;5073664;28;20051;-86
2023/07/25 08:01:21;;;;;;;2.72;1.70;;;;;;;15.92;80.54;100657.00;5073186;28;20338;-85
2023/07/25 08:03:59;;;;;;;2.58;1.70;;;;;;;15.86;80.59;100650.25;5073048;28;20033;-86
2023/07/25 08:06:33;;;;;;;4.15;1.80;;;;;;;15.68;77.69;100643.06;5072263;28;20077;-84
2023/07/25 08:08:58;;;;;;;2.72;1.42;;;;;;;15.70;78.58;100668.28;5072893;28;20025;-84
2023/07/25 08:11:24;;;;;;;4.50;1.63;;;;;;;15.52;79.45;100654.16;5071911;28;20035;-83
2023/07/25 08:14:01;;;;;;;5.27;2.00;;;;;;;15.46;77.80;100664.84;5072759;28;20650;-84
2023/07/25 08:16:27;;;;;;;3.53;1.70;;;;;;;15.38;78.25;100656.44;5074421;28;20016;-85
2023/07/25 08:18:52;;;;;;;3.93;1.67;;;;;;;15.42;76.84;100664.13;5072717;28;20017;-86
2023/07/25 08:21:23;;;;;;;3.17;1.60;;;;;;;15.47;76.11;100653.47;5072504;28;20028;-87
2023/07/25 08:23:48;;;;;;;4.15;2.00;;;;;;;15.48;74.30;100656.97;5072751;28;20017;-86
2023/07/25 08:26:14;;;;;;;2.23;1.40;;;;;;;15.57;78.43;100652.19;5071250;28;20040;-85
2023/07/25 08:31:24;;;;;;;4.10;1.67;;;;;;;15.74;74.66;100655.94;5072669;28;20036;-87
2023/07/25 08:33:49;;;;;;;5.03;1.70;;;;;;;15.85;75.16;100676.44;5071502;28;20028;-86
2023/07/25 08:36:30;;;;;;;3.63;1.60;;;;;;;15.95;75.75;100672.53;5072544;28;20032;-86
2023/07/25 08:38:56;;;;;;;2.22;1.10;;;;;;;16.05;77.83;100668.63;5072574;28;20473;-86
2023/07/25 08:41:43;;;;;;;7.03;1.77;;;;;;;16.31;73.38;100666.72;5071692;28;20047;-85
2023/07/25 08:44:10;;;;;;;3.30;1.65;;;;;;;16.40;73.04;100673.34;5072290;28;20032;-85
2023/07/25 08:46:51;;;;;;;3.28;1.40;;;;;;;16.54;71.77;100679.75;5018981;28;20411;-85
2023/07/25 08:49:20;;;;;;;2.72;1.30;;;;;;;16.62;72.93;100669.78;5072292;28;20024;-85
2023/07/25 08:52:07;;;;;;;2.42;1.20;;;;;;;16.95;71.27;100692.84;5072157;28;20484;-85
2023/07/25 08:54:42;;;;;;;4.03;1.52;;;;;;;17.06;71.65;100698.47;5071930;28;20104;-84
2023/07/25 08:57:23;;;;;;;3.15;1.30;;;;;;;17.02;72.96;100685.56;5072250;28;20430;-84
2023/07/25 08:59:50;;;;;;;3.08;1.40;;;;;;;17.10;72.74;100691.28;5071842;28;20041;-84
2023/07/25 09:02:16;;;;;;;4.57;1.60;;;;;;;17.04;66.81;100688.97;5071745;28;20051;-85
2023/07/25 09:04:57;;;;;;;;;;;;;;;17.08;70.86;100703.63;5072492;28;20028;-85
2023/07/25 09:07:22;;;;;;;2.50;1.23;;;;;;;17.12;70.59;100692.91;5072342;28;19959;-85
2023/07/25 09:09:48;;;;;;;2.95;1.40;;;;;;;17.35;70.86;100700.69;5071823;28;20043;-93
2023/07/25 09:12:14;;;;;;;2.37;1.57;;;;;;;17.38;69.96;100693.50;5221117;22;20040;-85
2023/07/25 09:14:42;;;;;;;1.52;1.30;;;;;;;17.40;69.57;100699.53;5070862;28;20048;-86
2023/07/25 09:17:07;;;;;;;2.55;1.50;;;;;;;17.62;68.35;100705.56;5071922;28;20508;-85
2023/07/25 09:19:33;;;;;;;1.73;1.20;;;;;;;17.87;70.40;100706.09;5072444;28;20063;-86
2023/07/25 09:21:59;;;;;;;2.33;1.10;;;;;;;18.03;66.33;100708.00;5071734;28;20469;-87
2023/07/25 09:24:56;;;;;;;3.70;1.70;;;;;;;17.70;62.35;100685.91;5071778;28;20080;-85
2023/07/25 09:27:22;;;;;;;4.80;1.63;;;;;;;17.52;63.37;100687.59;4983389;28;20572;-87
2023/07/25 09:29:52;;;;;;;2.67;1.57;;;;;;;17.28;64.93;100711.44;5002466;28;20030;-87
2023/07/25 09:32:32;;;;;;;1.88;1.40;;;;;;;17.03;63.06;100692.50;5044969;28;20571;-87
2023/07/25 09:35:00;;;;;;;3.35;1.45;;;;;;;17.21;66.19;100707.41;5051948;28;20079;-86
2023/07/25 09:37:50;;;;;;;1.73;1.25;;;;;;;17.52;62.86;100699.91;5051874;28;20029;-87
2023/07/25 09:40:16;;;;;;;1.90;1.38;;;;;;;17.83;60.99;100709.81;5056112;28;20017;-86
2023/07/25 09:42:59;;;;;;;3.93;1.50;;;;;;;18.09;59.47;100696.34;5075215;28;20380;-87
2023/07/25 09:45:24;;;;;;;2.97;1.50;;;;;;;18.42;62.88;100703.47;5075443;28;20461;-85
2023/07/25 09:47:51;;;;;;;2.13;1.17;;;;;;;18.66;62.06;100709.25;5074578;28;20027;-86
2023/07/25 09:50:16;;;;;;;;;;;;;;;18.97;57.51;100718.22;5074048;28;20534;-87
2023/07/25 09:52:54;;;;;;;4.33;1.50;;;;;;;19.20;62.70;100716.13;5075272;28;19912;-86
2023/07/25 09:55:20;;;;;;;1.40;1.10;;;;;;;19.42;62.29;100692.13;5075213;28;20032;-85
2023/07/25 09:57:46;;;;;;;1.80;0.83;;;;;;;19.39;59.66;100698.44;5074587;28;20099;-87
2023/07/25 10:00:12;;;;;;;5.05;1.23;;;;;;;19.15;55.74;100719.00;5075166;28;20025;-88
2023/07/25 10:02:40;;;;;;;2.08;1.17;;;;;;;18.85;61.29;100714.41;5075175;28;20109;-87
2023/07/25 10:05:09;;;;;;;2.95;1.30;;;;;;;18.64;61.80;100711.09;5074137;28;20035;-86
2023/07/25 10:07:36;;;;;;;1.05;0.90;;;;;;;18.46;58.52;100710.28;5075304;28;20046;-87
2023/07/25 10:10:03;;;;;;;3.17;1.23;;;;;;;18.55;59.16;100714.19;5075341;28;20032;-86
2023/07/25 10:12:29;;;;;;;1.80;1.33;;;;;;;18.71;60.89;100709.88;5071066;28;20128;-87
2023/07/25 10:14:56;;;;;;;1.07;0.90;;;;;;;18.93;59.12;100709.63;5074987;28;20108;-86
2023/07/25 10:17:22;;;;;;;2.35;1.10;;;;;;;19.18;58.04;100712.75;5074826;28;20095;-86
2023/07/25 10:19:53;;;;;;;1.80;0.85;;;;;;;19.37;57.06;100716.06;5074329;28;20064;-88
2023/07/25 10:22:39;;;;;;;3.15;1.02;;;;;;;19.49;56.49;100703.19;5074915;28;20060;-88
2023/07/25 10:25:11;;;;;;;;;;;;;;;19.48;52.50;100704.94;5072284;28;20024;-87
2023/07/25 10:27:39;;;;;;;3.30;1.25;;;;;;;19.42;54.11;100708.75;5067347;28;19917;-87
2023/07/25 10:30:22;;;;;;;2.33;1.20;;;;;;;19.60;58.92;100695.53;5074211;28;20020;-86
2023/07/25 10:32:51;;;;;;;1.08;0.90;;;;;;;19.96;60.79;100701.47;5073992;28;20036;-88
2023/07/25 10:35:16;;;;;;;3.25;1.20;;;;;;;20.18;58.56;100695.81;5073888;28;20028;-88
2023/07/25 10:37:43;;;;;;;3.73;1.60;;;;;;;20.27;55.57;100702.31;5074774;28;20107;-88
2023/07/25 10:40:16;;;;;;;3.55;1.50;;;;;;;20.23;53.23;100709.56;5074623;28;20032;-87
2023/07/25 10:42:43;;;;;;;3.22;1.40;;;;;;;20.25;50.70;100701.59;5075407;28;20021;-88
2023/07/25 10:45:38;;;;;;;;;;;;;;;19.94;48.91;100708.59;5075265;28;20052;-88
2023/07/25 10:48:34;;;;;;;3.63;1.40;;;;;;;19.74;54.48;100707.91;5065735;28;19972;-90
2023/07/25 10:51:07;;;;;;;2.70;1.20;;;;;;;19.67;50.44;100703.94;5075106;28;20074;-90
2023/07/25 10:53:33;;;;;;;1.77;1.10;;;;;;;19.90;54.44;100703.53;5080567;22;20055;-88
2023/07/25 10:56:07;;;;;;;2.15;1.00;;;;;;;20.33;51.66;100709.88;5074614;28;20112;-92
2023/07/25 10:58:38;;;;;;;4.07;1.50;;;;;;;20.50;52.28;100709.72;5075770;28;20032;-90
2023/07/25 11:01:04;;;;;;;3.25;1.30;;;;;;;20.61;52.97;100700.34;5074717;28;20020;-90
2023/07/25 11:03:35;;;;;;;4.72;1.40;;;;;;;20.73;49.89;100706.66;5074958;28;20358;-89
2023/07/25 11:06:12;;;;;;;3.60;1.30;;;;;;;20.26;52.57;100703.28;5074245;28;20024;-91
2023/07/25 11:08:39;;;;;;;1.10;0.75;;;;;;;20.27;54.28;100699.69;5074639;28;20032;-89
2023/07/25 11:11:23;;;;;;;2.08;1.05;;;;;;;20.49;49.44;100697.47;5074446;28;20460;-91
2023/07/25 11:13:49;;;;;;;3.65;1.00;;;;;;;20.69;52.83;100690.19;5074152;28;20024;-85
2023/07/25 11:16:14;;;;;;;2.40;1.00;;;;;;;20.85;49.12;100705.09;5068158;28;20021;-87
2023/07/25 11:18:50;;;;;;;1.00;0.90;;;;;;;20.75;52.76;100710.94;5054135;28;20032;-87
2023/07/25 11:21:16;;;;;;;2.08;0.90;;;;;;;20.37;48.89;100706.16;5053033;28;20041;-88
2023/07/25 11:23:42;;;;;;;4.28;1.20;;;;;;;19.93;48.99;100712.19;5054873;28;20024;-91
2023/07/25 11:26:07;;;;;;;1.33;0.80;;;;;;;19.80;52.23;100710.22;5053513;28;20029;-86
2023/07/25 11:28:34;;;;;;;3.27;1.10;;;;;;;19.88;50.89;100701.91;5052647;28;20496;-85
2023/07/25 11:30:59;;;;;;;;;;;;;;;20.04;50.45;100702.75;5053803;28;20040;-86